sensor_id;sensor_type;location;lat;lon;timestamp;P1;durP1;ratioP1;P2;durP2;ratioP2
8556;SDS011;4316;53.840;10.762;2023-08-21T00:00:14;2.63;;;1.60;;
8556;SDS011;4316;53.840;10.762;2023-08-21T00:02:40;2.80;;;1.52;;
8556;SDS011;4316;53.840;10.762;2023-08-21T00:05:05;4.18;;;1.90;;
8556;SDS011;4316;53.840;10.762;2023-08-21T00:07:31;6.20;;;1.70;;
8556;SDS011;4316;53.840;10.762;2023-08-21T00:09:57;2.85;;;1.58;;
8556;SDS011;4316;53.840;10.762;2023-08-21T00:12:22;5.60;;;1.88;;
8556;SDS011;4316;53.840;10.762;2023-08-21T00:14:48;2.72;;;1.90;;
8556;SDS011;4316;53.840;10.762;2023-08-21T00:17:13;3.50;;;1.73;;
8556;SDS011;4316;53.840;10.762;2023-08-21T00:19:39;4.90;;;1.77;;
8556;SDS011;4316;53.840;10.762;2023-08-21T00:22:04;15.85;;;2.45;;
8556;SDS011;4316;53.840;10.762;2023-08-21T00:24:30;6.57;;;2.33;;
8556;SDS011;4316;53.840;10.762;2023-08-21T00:26:55;3.05;;;2.13;;
8556;SDS011;4316;53.840;10.762;2023-08-21T00:29:21;2.63;;;1.67;;
8556;SDS011;4316;53.840;10.762;2023-08-21T00:31:47;6.70;;;1.90;;
8556;SDS011;4316;53.840;10.762;2023-08-21T00:34:12;3.15;;;1.75;;
8556;SDS011;4316;53.840;10.762;2023-08-21T00:36:38;5.13;;;1.98;;
8556;SDS011;4316;53.840;10.762;2023-08-21T00:39:03;2.90;;;1.60;;
8556;SDS011;4316;53.840;10.762;2023-08-21T00:41:29;8.65;;;2.03;;
8556;SDS011;4316;53.840;10.762;2023-08-21T00:43:56;5.68;;;1.98;;
8556;SDS011;4316;53.840;10.762;2023-08-21T00:46:21;9.07;;;2.42;;
8556;SDS011;4316;53.840;10.762;2023-08-21T00:48:47;4.53;;;2.38;;
8556;SDS011;4316;53.840;10.762;2023-08-21T00:51:14;5.47;;;2.40;;
8556;SDS011;4316;53.840;10.762;2023-08-21T00:53:41;3.78;;;2.25;;
8556;SDS011;4316;53.840;10.762;2023-08-21T00:56:07;3.17;;;2.15;;
8556;SDS011;4316;53.840;10.762;2023-08-21T00:58:33;5.03;;;2.60;;
8556;SDS011;4316;53.840;10.762;2023-08-21T01:00:59;9.18;;;2.10;;
8556;SDS011;4316;53.840;10.762;2023-08-21T01:03:25;2.85;;;1.73;;
8556;SDS011;4316;53.840;10.762;2023-08-21T01:05:50;2.40;;;1.88;;
8556;SDS011;4316;53.840;10.762;2023-08-21T01:08:21;3.50;;;1.73;;
8556;SDS011;4316;53.840;10.762;2023-08-21T01:10:51;7.03;;;2.35;;
8556;SDS011;4316;53.840;10.762;2023-08-21T01:16:00;5.40;;;2.30;;
8556;SDS011;4316;53.840;10.762;2023-08-21T01:18:26;3.20;;;1.65;;
8556;SDS011;4316;53.840;10.762;2023-08-21T01:20:54;7.75;;;1.88;;
8556;SDS011;4316;53.840;10.762;2023-08-21T01:23:33;2.88;;;1.92;;
8556;SDS011;4316;53.840;10.762;2023-08-21T01:25:59;4.60;;;1.75;;
8556;SDS011;4316;53.840;10.762;2023-08-21T01:28:25;4.10;;;1.85;;
8556;SDS011;4316;53.840;10.762;2023-08-21T01:30:53;9.80;;;2.08;;
8556;SDS011;4316;53.840;10.762;2023-08-21T01:33:36;4.78;;;1.70;;
8556;SDS011;4316;53.840;10.762;2023-08-21T01:36:07;8.38;;;2.25;;
8556;SDS011;4316;53.840;10.762;2023-08-21T01:38:33;4.75;;;1.73;;
8556;SDS011;4316;53.840;10.762;2023-08-21T01:40:58;6.30;;;1.90;;
8556;SDS011;4316;53.840;10.762;2023-08-21T01:43:24;3.92;;;1.48;;
8556;SDS011;4316;53.840;10.762;2023-08-21T01:45:49;6.28;;;1.65;;
8556;SDS011;4316;53.840;10.762;2023-08-21T01:48:16;5.28;;;1.52;;
8556;SDS011;4316;53.840;10.762;2023-08-21T01:50:41;11.32;;;2.08;;
8556;SDS011;4316;53.840;10.762;2023-08-21T01:53:07;4.80;;;1.80;;
8556;SDS011;4316;53.840;10.762;2023-08-21T01:55:32;8.45;;;1.83;;
8556;SDS011;4316;53.840;10.762;2023-08-21T01:57:58;5.43;;;2.00;;
8556;SDS011;4316;53.840;10.762;2023-08-21T02:00:24;6.60;;;2.13;;
8556;SDS011;4316;53.840;10.762;2023-08-21T02:02:49;4.47;;;1.95;;
8556;SDS011;4316;53.840;10.762;2023-08-21T02:05:15;8.45;;;2.00;;
8556;SDS011;4316;53.840;10.762;2023-08-21T02:07:40;3.72;;;2.10;;
8556;SDS011;4316;53.840;10.762;2023-08-21T02:10:06;5.93;;;1.95;;
8556;SDS011;4316;53.840;10.762;2023-08-21T02:12:32;6.80;;;2.40;;
8556;SDS011;4316;53.840;10.762;2023-08-21T02:14:58;5.22;;;2.15;;
8556;SDS011;4316;53.840;10.762;2023-08-21T02:17:26;4.20;;;1.70;;
8556;SDS011;4316;53.840;10.762;2023-08-21T02:19:52;5.85;;;1.75;;
8556;SDS011;4316;53.840;10.762;2023-08-21T02:22:17;4.35;;;1.83;;
8556;SDS011;4316;53.840;10.762;2023-08-21T02:24:43;4.75;;;2.03;;
8556;SDS011;4316;53.840;10.762;2023-08-21T02:27:08;2.38;;;1.67;;
8556;SDS011;4316;53.840;10.762;2023-08-21T02:29:34;5.82;;;2.10;;
8556;SDS011;4316;53.840;10.762;2023-08-21T02:32:02;4.22;;;1.63;;
8556;SDS011;4316;53.840;10.762;2023-08-21T02:34:27;6.28;;;1.73;;
8556;SDS011;4316;53.840;10.762;2023-08-21T02:36:53;5.35;;;1.80;;
8556;SDS011;4316;53.840;10.762;2023-08-21T02:39:18;6.72;;;1.63;;
8556;SDS011;4316;53.840;10.762;2023-08-21T02:41:44;4.32;;;1.63;;
8556;SDS011;4316;53.840;10.762;2023-08-21T02:44:09;4.55;;;1.58;;
8556;SDS011;4316;53.840;10.762;2023-08-21T02:46:35;4.10;;;1.38;;
8556;SDS011;4316;53.840;10.762;2023-08-21T02:49:02;2.65;;;1.25;;
8556;SDS011;4316;53.840;10.762;2023-08-21T02:51:28;1.40;;;1.30;;
8556;SDS011;4316;53.840;10.762;2023-08-21T02:53:54;3.65;;;1.38;;
8556;SDS011;4316;53.840;10.762;2023-08-21T02:56:19;3.58;;;1.50;;
8556;SDS011;4316;53.840;10.762;2023-08-21T02:58:45;2.97;;;1.65;;
8556;SDS011;4316;53.840;10.762;2023-08-21T03:01:10;4.85;;;1.40;;
8556;SDS011;4316;53.840;10.762;2023-08-21T03:03:36;4.95;;;1.45;;
8556;SDS011;4316;53.840;10.762;2023-08-21T03:06:02;2.90;;;1.30;;
8556;SDS011;4316;53.840;10.762;2023-08-21T03:08:28;3.95;;;1.60;;
8556;SDS011;4316;53.840;10.762;2023-08-21T03:10:53;4.50;;;1.60;;
8556;SDS011;4316;53.840;10.762;2023-08-21T03:13:20;4.22;;;1.20;;
8556;SDS011;4316;53.840;10.762;2023-08-21T03:15:45;3.20;;;0.93;;
8556;SDS011;4316;53.840;10.762;2023-08-21T03:18:11;2.90;;;1.05;;
8556;SDS011;4316;53.840;10.762;2023-08-21T03:20:36;4.47;;;1.60;;
8556;SDS011;4316;53.840;10.762;2023-08-21T03:23:02;10.48;;;1.75;;
8556;SDS011;4316;53.840;10.762;2023-08-21T03:25:28;5.50;;;1.30;;
8556;SDS011;4316;53.840;10.762;2023-08-21T03:27:53;1.52;;;1.20;;
8556;SDS011;4316;53.840;10.762;2023-08-21T03:30:19;2.60;;;1.30;;
8556;SDS011;4316;53.840;10.762;2023-08-21T03:32:44;3.38;;;1.33;;
8556;SDS011;4316;53.840;10.762;2023-08-21T03:35:11;2.38;;;1.15;;
8556;SDS011;4316;53.840;10.762;2023-08-21T03:37:36;6.95;;;1.35;;
8556;SDS011;4316;53.840;10.762;2023-08-21T03:40:02;12.73;;;1.38;;
8556;SDS011;4316;53.840;10.762;2023-08-21T03:42:29;1.23;;;1.13;;
8556;SDS011;4316;53.840;10.762;2023-08-21T03:44:55;1.92;;;1.30;;
8556;SDS011;4316;53.840;10.762;2023-08-21T03:47:20;6.87;;;1.47;;
8556;SDS011;4316;53.840;10.762;2023-08-21T03:49:53;3.95;;;1.67;;
8556;SDS011;4316;53.840;10.762;2023-08-21T03:52:21;1.92;;;1.15;;
8556;SDS011;4316;53.840;10.762;2023-08-21T03:54:47;6.18;;;1.80;;
8556;SDS011;4316;53.840;10.762;2023-08-21T03:57:13;3.35;;;1.95;;
8556;SDS011;4316;53.840;10.762;2023-08-21T03:59:39;2.13;;;1.58;;
8556;SDS011;4316;53.840;10.762;2023-08-21T04:02:04;2.55;;;1.63;;
8556;SDS011;4316;53.840;10.762;2023-08-21T04:04:31;3.53;;;1.87;;
8556;SDS011;4316;53.840;10.762;2023-08-21T04:06:57;2.20;;;1.40;;
8556;SDS011;4316;53.840;10.762;2023-08-21T04:09:22;5.40;;;1.93;;
8556;SDS011;4316;53.840;10.762;2023-08-21T04:11:49;7.67;;;2.07;;
8556;SDS011;4316;53.840;10.762;2023-08-21T04:14:14;6.60;;;1.90;;
8556;SDS011;4316;53.840;10.762;2023-08-21T04:16:40;6.78;;;1.77;;
8556;SDS011;4316;53.840;10.762;2023-08-21T04:19:06;3.35;;;1.63;;
8556;SDS011;4316;53.840;10.762;2023-08-21T04:21:31;4.00;;;1.40;;
8556;SDS011;4316;53.840;10.762;2023-08-21T04:23:57;2.55;;;1.58;;
8556;SDS011;4316;53.840;10.762;2023-08-21T04:26:22;8.82;;;1.35;;
8556;SDS011;4316;53.840;10.762;2023-08-21T04:28:48;5.95;;;1.60;;
8556;SDS011;4316;53.840;10.762;2023-08-21T04:31:13;2.17;;;1.45;;
8556;SDS011;4316;53.840;10.762;2023-08-21T04:33:40;7.20;;;2.17;;
8556;SDS011;4316;53.840;10.762;2023-08-21T04:36:06;3.25;;;1.77;;
8556;SDS011;4316;53.840;10.762;2023-08-21T04:38:33;3.67;;;2.10;;
8556;SDS011;4316;53.840;10.762;2023-08-21T04:41:08;8.93;;;2.03;;
8556;SDS011;4316;53.840;10.762;2023-08-21T04:43:35;5.83;;;1.70;;
8556;SDS011;4316;53.840;10.762;2023-08-21T04:46:03;8.10;;;1.90;;
8556;SDS011;4316;53.840;10.762;2023-08-21T04:48:29;10.07;;;2.10;;
8556;SDS011;4316;53.840;10.762;2023-08-21T04:50:55;5.65;;;2.00;;
8556;SDS011;4316;53.840;10.762;2023-08-21T04:53:21;3.85;;;2.00;;
8556;SDS011;4316;53.840;10.762;2023-08-21T04:55:47;6.40;;;1.67;;
8556;SDS011;4316;53.840;10.762;2023-08-21T04:58:13;7.03;;;1.75;;
8556;SDS011;4316;53.840;10.762;2023-08-21T05:00:40;6.97;;;2.28;;
8556;SDS011;4316;53.840;10.762;2023-08-21T05:03:06;4.28;;;2.13;;
8556;SDS011;4316;53.840;10.762;2023-08-21T05:05:34;5.68;;;2.30;;
8556;SDS011;4316;53.840;10.762;2023-08-21T05:08:00;7.88;;;2.45;;
8556;SDS011;4316;53.840;10.762;2023-08-21T05:10:26;5.35;;;2.03;;
8556;SDS011;4316;53.840;10.762;2023-08-21T05:12:52;3.88;;;2.05;;
8556;SDS011;4316;53.840;10.762;2023-08-21T05:15:17;8.40;;;2.22;;
8556;SDS011;4316;53.840;10.762;2023-08-21T05:17:44;10.23;;;2.87;;
8556;SDS011;4316;53.840;10.762;2023-08-21T05:20:10;7.03;;;2.90;;
8556;SDS011;4316;53.840;10.762;2023-08-21T05:22:38;4.18;;;3.08;;
8556;SDS011;4316;53.840;10.762;2023-08-21T05:25:04;7.05;;;2.60;;
8556;SDS011;4316;53.840;10.762;2023-08-21T05:27:30;7.68;;;2.72;;
8556;SDS011;4316;53.840;10.762;2023-08-21T05:29:56;11.25;;;3.40;;
8556;SDS011;4316;53.840;10.762;2023-08-21T05:32:21;12.30;;;4.10;;
8556;SDS011;4316;53.840;10.762;2023-08-21T05:34:48;9.18;;;3.78;;
8556;SDS011;4316;53.840;10.762;2023-08-21T05:37:14;14.55;;;4.78;;
8556;SDS011;4316;53.840;10.762;2023-08-21T05:39:39;12.55;;;4.05;;
8556;SDS011;4316;53.840;10.762;2023-08-21T05:42:06;14.45;;;4.85;;
8556;SDS011;4316;53.840;10.762;2023-08-21T05:44:31;12.37;;;4.87;;
8556;SDS011;4316;53.840;10.762;2023-08-21T05:46:57;10.50;;;5.70;;
8556;SDS011;4316;53.840;10.762;2023-08-21T05:49:23;13.13;;;5.38;;
8556;SDS011;4316;53.840;10.762;2023-08-21T05:51:49;14.60;;;5.20;;
8556;SDS011;4316;53.840;10.762;2023-08-21T05:54:14;18.55;;;6.10;;
8556;SDS011;4316;53.840;10.762;2023-08-21T05:56:41;23.73;;;7.15;;
8556;SDS011;4316;53.840;10.762;2023-08-21T05:59:09;14.80;;;5.75;;
8556;SDS011;4316;53.840;10.762;2023-08-21T06:01:35;17.73;;;6.07;;
8556;SDS011;4316;53.840;10.762;2023-08-21T06:04:01;19.58;;;6.45;;
8556;SDS011;4316;53.840;10.762;2023-08-21T06:06:47;14.00;;;5.97;;
8556;SDS011;4316;53.840;10.762;2023-08-21T06:09:13;15.98;;;5.70;;
8556;SDS011;4316;53.840;10.762;2023-08-21T06:11:38;14.40;;;6.43;;
8556;SDS011;4316;53.840;10.762;2023-08-21T06:14:04;12.15;;;4.88;;
8556;SDS011;4316;53.840;10.762;2023-08-21T06:16:30;19.08;;;5.85;;
8556;SDS011;4316;53.840;10.762;2023-08-21T06:18:55;15.05;;;5.75;;
8556;SDS011;4316;53.840;10.762;2023-08-21T06:21:21;17.73;;;5.43;;
8556;SDS011;4316;53.840;10.762;2023-08-21T06:23:47;14.40;;;5.18;;
8556;SDS011;4316;53.840;10.762;2023-08-21T06:26:12;15.63;;;5.13;;
8556;SDS011;4316;53.840;10.762;2023-08-21T06:28:38;15.45;;;5.80;;
8556;SDS011;4316;53.840;10.762;2023-08-21T06:31:03;14.75;;;5.78;;
8556;SDS011;4316;53.840;10.762;2023-08-21T06:33:32;13.68;;;4.65;;
8556;SDS011;4316;53.840;10.762;2023-08-21T06:35:58;12.85;;;5.65;;
8556;SDS011;4316;53.840;10.762;2023-08-21T06:38:25;16.85;;;4.93;;
8556;SDS011;4316;53.840;10.762;2023-08-21T06:40:50;18.25;;;5.38;;
8556;SDS011;4316;53.840;10.762;2023-08-21T06:43:16;13.18;;;4.60;;
8556;SDS011;4316;53.840;10.762;2023-08-21T06:45:45;16.35;;;5.13;;
8556;SDS011;4316;53.840;10.762;2023-08-21T06:48:11;11.93;;;4.03;;
8556;SDS011;4316;53.840;10.762;2023-08-21T06:50:37;12.85;;;4.55;;
8556;SDS011;4316;53.840;10.762;2023-08-21T06:53:02;15.65;;;4.57;;
8556;SDS011;4316;53.840;10.762;2023-08-21T06:55:28;13.52;;;3.63;;
8556;SDS011;4316;53.840;10.762;2023-08-21T06:57:53;13.40;;;4.03;;
8556;SDS011;4316;53.840;10.762;2023-08-21T07:00:19;16.77;;;4.25;;
8556;SDS011;4316;53.840;10.762;2023-08-21T07:02:45;16.05;;;3.72;;
8556;SDS011;4316;53.840;10.762;2023-08-21T07:05:10;13.38;;;3.53;;
8556;SDS011;4316;53.840;10.762;2023-08-21T07:07:36;16.08;;;3.35;;
8556;SDS011;4316;53.840;10.762;2023-08-21T07:10:02;17.15;;;3.45;;
8556;SDS011;4316;53.840;10.762;2023-08-21T07:12:28;13.20;;;3.13;;
8556;SDS011;4316;53.840;10.762;2023-08-21T07:14:53;13.02;;;3.88;;
8556;SDS011;4316;53.840;10.762;2023-08-21T07:17:19;11.38;;;3.15;;
8556;SDS011;4316;53.840;10.762;2023-08-21T07:19:45;13.32;;;3.03;;
8556;SDS011;4316;53.840;10.762;2023-08-21T07:22:11;7.47;;;2.55;;
8556;SDS011;4316;53.840;10.762;2023-08-21T07:24:36;15.77;;;3.30;;
8556;SDS011;4316;53.840;10.762;2023-08-21T07:27:02;9.60;;;3.03;;
8556;SDS011;4316;53.840;10.762;2023-08-21T07:29:27;10.57;;;2.65;;
8556;SDS011;4316;53.840;10.762;2023-08-21T07:31:54;12.50;;;3.33;;
8556;SDS011;4316;53.840;10.762;2023-08-21T07:34:20;11.43;;;2.83;;
8556;SDS011;4316;53.840;10.762;2023-08-21T07:36:45;17.98;;;3.38;;
8556;SDS011;4316;53.840;10.762;2023-08-21T07:39:11;8.00;;;2.53;;
8556;SDS011;4316;53.840;10.762;2023-08-21T07:41:37;6.88;;;2.30;;
8556;SDS011;4316;53.840;10.762;2023-08-21T07:44:02;6.57;;;2.30;;
8556;SDS011;4316;53.840;10.762;2023-08-21T07:46:28;7.35;;;2.33;;
8556;SDS011;4316;53.840;10.762;2023-08-21T07:48:53;8.50;;;2.15;;
8556;SDS011;4316;53.840;10.762;2023-08-21T07:51:19;14.90;;;2.75;;
8556;SDS011;4316;53.840;10.762;2023-08-21T07:53:45;6.95;;;1.85;;
8556;SDS011;4316;53.840;10.762;2023-08-21T07:56:10;8.70;;;2.17;;
8556;SDS011;4316;53.840;10.762;2023-08-21T07:58:36;6.05;;;1.95;;
8556;SDS011;4316;53.840;10.762;2023-08-21T08:01:02;5.72;;;1.75;;
8556;SDS011;4316;53.840;10.762;2023-08-21T08:03:29;5.90;;;2.10;;
8556;SDS011;4316;53.840;10.762;2023-08-21T08:05:56;7.20;;;2.25;;
8556;SDS011;4316;53.840;10.762;2023-08-21T08:08:21;8.25;;;2.15;;
8556;SDS011;4316;53.840;10.762;2023-08-21T08:10:47;12.23;;;2.28;;
8556;SDS011;4316;53.840;10.762;2023-08-21T08:13:12;11.23;;;2.63;;
8556;SDS011;4316;53.840;10.762;2023-08-21T08:15:38;5.65;;;2.00;;
8556;SDS011;4316;53.840;10.762;2023-08-21T08:18:04;11.65;;;2.53;;
8556;SDS011;4316;53.840;10.762;2023-08-21T08:20:32;10.65;;;1.85;;
8556;SDS011;4316;53.840;10.762;2023-08-21T08:22:57;8.32;;;2.65;;
8556;SDS011;4316;53.840;10.762;2023-08-21T08:25:23;8.65;;;2.35;;
8556;SDS011;4316;53.840;10.762;2023-08-21T08:27:49;7.07;;;2.08;;
8556;SDS011;4316;53.840;10.762;2023-08-21T08:30:14;6.70;;;2.08;;
8556;SDS011;4316;53.840;10.762;2023-08-21T08:32:42;7.35;;;1.75;;
8556;SDS011;4316;53.840;10.762;2023-08-21T08:35:10;5.10;;;1.85;;
8556;SDS011;4316;53.840;10.762;2023-08-21T08:37:40;5.53;;;1.58;;
8556;SDS011;4316;53.840;10.762;2023-08-21T08:40:06;3.47;;;1.48;;
8556;SDS011;4316;53.840;10.762;2023-08-21T08:42:32;5.50;;;1.48;;
8556;SDS011;4316;53.840;10.762;2023-08-21T08:44:59;9.77;;;1.80;;
8556;SDS011;4316;53.840;10.762;2023-08-21T08:47:29;7.15;;;1.92;;
8556;SDS011;4316;53.840;10.762;2023-08-21T08:49:57;4.47;;;1.73;;
8556;SDS011;4316;53.840;10.762;2023-08-21T08:52:25;5.68;;;1.50;;
8556;SDS011;4316;53.840;10.762;2023-08-21T08:54:53;2.38;;;1.00;;
8556;SDS011;4316;53.840;10.762;2023-08-21T08:57:20;6.00;;;1.83;;
8556;SDS011;4316;53.840;10.762;2023-08-21T08:59:46;5.95;;;1.67;;
8556;SDS011;4316;53.840;10.762;2023-08-21T09:02:11;9.15;;;2.08;;
8556;SDS011;4316;53.840;10.762;2023-08-21T09:04:37;5.30;;;1.48;;
8556;SDS011;4316;53.840;10.762;2023-08-21T09:07:06;4.20;;;1.85;;
8556;SDS011;4316;53.840;10.762;2023-08-21T09:09:39;5.07;;;1.70;;
8556;SDS011;4316;53.840;10.762;2023-08-21T09:12:14;4.68;;;1.73;;
8556;SDS011;4316;53.840;10.762;2023-08-21T09:14:40;5.70;;;1.67;;
8556;SDS011;4316;53.840;10.762;2023-08-21T09:17:07;5.28;;;1.65;;
8556;SDS011;4316;53.840;10.762;2023-08-21T09:19:33;4.28;;;1.40;;
8556;SDS011;4316;53.840;10.762;2023-08-21T09:21:58;3.65;;;1.10;;
8556;SDS011;4316;53.840;10.762;2023-08-21T09:24:32;3.25;;;1.40;;
8556;SDS011;4316;53.840;10.762;2023-08-21T09:26:58;1.88;;;1.20;;
8556;SDS011;4316;53.840;10.762;2023-08-21T09:29:25;3.88;;;1.42;;
8556;SDS011;4316;53.840;10.762;2023-08-21T09:31:50;2.67;;;1.25;;
8556;SDS011;4316;53.840;10.762;2023-08-21T09:34:20;4.53;;;1.50;;
8556;SDS011;4316;53.840;10.762;2023-08-21T09:36:46;1.40;;;0.88;;
8556;SDS011;4316;53.840;10.762;2023-08-21T09:39:19;4.00;;;1.40;;
8556;SDS011;4316;53.840;10.762;2023-08-21T09:41:54;4.78;;;1.33;;
8556;SDS011;4316;53.840;10.762;2023-08-21T09:44:21;10.68;;;1.70;;
8556;SDS011;4316;53.840;10.762;2023-08-21T09:46:48;5.00;;;1.50;;
8556;SDS011;4316;53.840;10.762;2023-08-21T09:49:14;4.38;;;1.30;;
8556;SDS011;4316;53.840;10.762;2023-08-21T09:51:42;4.57;;;1.40;;
8556;SDS011;4316;53.840;10.762;2023-08-21T09:54:10;4.03;;;1.48;;
8556;SDS011;4316;53.840;10.762;2023-08-21T09:56:37;3.72;;;1.48;;
8556;SDS011;4316;53.840;10.762;2023-08-21T09:59:03;2.45;;;1.30;;
8556;SDS011;4316;53.840;10.762;2023-08-21T10:01:29;3.53;;;1.50;;
8556;SDS011;4316;53.840;10.762;2023-08-21T10:03:58;2.55;;;1.02;;
8556;SDS011;4316;53.840;10.762;2023-08-21T10:06:27;4.22;;;1.40;;
8556;SDS011;4316;53.840;10.762;2023-08-21T10:08:54;4.22;;;1.30;;
8556;SDS011;4316;53.840;10.762;2023-08-21T10:11:21;3.55;;;1.65;;
8556;SDS011;4316;53.840;10.762;2023-08-21T10:13:48;2.50;;;1.20;;
8556;SDS011;4316;53.840;10.762;2023-08-21T10:16:16;6.28;;;1.45;;
8556;SDS011;4316;53.840;10.762;2023-08-21T10:18:45;3.72;;;1.45;;
8556;SDS011;4316;53.840;10.762;2023-08-21T10:21:12;2.03;;;1.08;;
8556;SDS011;4316;53.840;10.762;2023-08-21T10:23:39;3.20;;;1.17;;
8556;SDS011;4316;53.840;10.762;2023-08-21T10:26:06;2.67;;;0.95;;
8556;SDS011;4316;53.840;10.762;2023-08-21T10:28:52;3.40;;;1.33;;
8556;SDS011;4316;53.840;10.762;2023-08-21T10:33:56;2.85;;;1.15;;
8556;SDS011;4316;53.840;10.762;2023-08-21T10:41:55;2.40;;;1.00;;
8556;SDS011;4316;53.840;10.762;2023-08-21T10:44:33;4.63;;;1.00;;
8556;SDS011;4316;53.840;10.762;2023-08-21T10:47:15;7.22;;;1.40;;
8556;SDS011;4316;53.840;10.762;2023-08-21T10:49:55;4.82;;;1.35;;
8556;SDS011;4316;53.840;10.762;2023-08-21T10:52:23;2.83;;;1.27;;
8556;SDS011;4316;53.840;10.762;2023-08-21T10:55:01;4.63;;;1.00;;
8556;SDS011;4316;53.840;10.762;2023-08-21T10:57:31;4.95;;;1.23;;
8556;SDS011;4316;53.840;10.762;2023-08-21T11:02:30;3.22;;;1.40;;
8556;SDS011;4316;53.840;10.762;2023-08-21T11:04:57;3.30;;;1.17;;
8556;SDS011;4316;53.840;10.762;2023-08-21T11:07:26;8.20;;;1.00;;
8556;SDS011;4316;53.840;10.762;2023-08-21T11:09:52;1.63;;;0.95;;
8556;SDS011;4316;53.840;10.762;2023-08-21T11:12:19;3.75;;;0.90;;
8556;SDS011;4316;53.840;10.762;2023-08-21T11:14:45;2.88;;;1.10;;
8556;SDS011;4316;53.840;10.762;2023-08-21T11:17:11;3.28;;;1.35;;
8556;SDS011;4316;53.840;10.762;2023-08-21T11:19:37;2.05;;;1.00;;
8556;SDS011;4316;53.840;10.762;2023-08-21T11:22:04;3.88;;;1.00;;
8556;SDS011;4316;53.840;10.762;2023-08-21T11:24:38;3.78;;;1.10;;
8556;SDS011;4316;53.840;10.762;2023-08-21T11:27:13;5.25;;;1.20;;
8556;SDS011;4316;53.840;10.762;2023-08-21T11:29:44;3.67;;;1.23;;
8556;SDS011;4316;53.840;10.762;2023-08-21T11:32:15;3.03;;;1.35;;
8556;SDS011;4316;53.840;10.762;2023-08-21T11:34:47;1.77;;;1.00;;
8556;SDS011;4316;53.840;10.762;2023-08-21T11:37:16;3.92;;;1.42;;
8556;SDS011;4316;53.840;10.762;2023-08-21T11:39:48;4.10;;;1.20;;
8556;SDS011;4316;53.840;10.762;2023-08-21T11:42:17;5.72;;;1.40;;
8556;SDS011;4316;53.840;10.762;2023-08-21T11:44:48;1.90;;;1.20;;
8556;SDS011;4316;53.840;10.762;2023-08-21T11:47:16;5.55;;;1.60;;
8556;SDS011;4316;53.840;10.762;2023-08-21T11:49:43;6.50;;;1.30;;
8556;SDS011;4316;53.840;10.762;2023-08-21T11:52:10;4.85;;;1.60;;
8556;SDS011;4316;53.840;10.762;2023-08-21T11:54:36;2.20;;;1.00;;
8556;SDS011;4316;53.840;10.762;2023-08-21T11:57:21;2.58;;;1.00;;
8556;SDS011;4316;53.840;10.762;2023-08-21T11:59:50;7.97;;;1.77;;
8556;SDS011;4316;53.840;10.762;2023-08-21T12:02:26;3.70;;;0.98;;
8556;SDS011;4316;53.840;10.762;2023-08-21T12:05:05;2.22;;;1.00;;
8556;SDS011;4316;53.840;10.762;2023-08-21T12:07:34;3.10;;;1.15;;
8556;SDS011;4316;53.840;10.762;2023-08-21T12:10:00;2.00;;;0.93;;
8556;SDS011;4316;53.840;10.762;2023-08-21T12:12:26;4.28;;;1.73;;
8556;SDS011;4316;53.840;10.762;2023-08-21T12:14:52;3.83;;;1.30;;
8556;SDS011;4316;53.840;10.762;2023-08-21T12:17:17;2.47;;;1.10;;
8556;SDS011;4316;53.840;10.762;2023-08-21T12:19:43;3.22;;;1.15;;
8556;SDS011;4316;53.840;10.762;2023-08-21T12:22:09;1.23;;;0.93;;
8556;SDS011;4316;53.840;10.762;2023-08-21T12:24:34;2.20;;;1.02;;
8556;SDS011;4316;53.840;10.762;2023-08-21T12:27:02;3.67;;;1.15;;
8556;SDS011;4316;53.840;10.762;2023-08-21T12:29:28;2.72;;;1.25;;
8556;SDS011;4316;53.840;10.762;2023-08-21T12:31:54;3.58;;;0.98;;
8556;SDS011;4316;53.840;10.762;2023-08-21T12:34:19;2.72;;;0.80;;
8556;SDS011;4316;53.840;10.762;2023-08-21T12:36:45;3.80;;;1.55;;
8556;SDS011;4316;53.840;10.762;2023-08-21T12:39:11;1.33;;;0.90;;
8556;SDS011;4316;53.840;10.762;2023-08-21T12:41:36;3.15;;;1.20;;
8556;SDS011;4316;53.840;10.762;2023-08-21T12:44:02;3.47;;;1.30;;
8556;SDS011;4316;53.840;10.762;2023-08-21T12:46:28;2.00;;;1.00;;
8556;SDS011;4316;53.840;10.762;2023-08-21T12:48:55;2.90;;;1.20;;
8556;SDS011;4316;53.840;10.762;2023-08-21T12:51:21;3.40;;;1.30;;
8556;SDS011;4316;53.840;10.762;2023-08-21T12:53:47;3.78;;;1.35;;
8556;SDS011;4316;53.840;10.762;2023-08-21T12:56:13;3.92;;;1.00;;
8556;SDS011;4316;53.840;10.762;2023-08-21T12:58:38;2.70;;;0.90;;
8556;SDS011;4316;53.840;10.762;2023-08-21T13:01:04;2.40;;;1.17;;
8556;SDS011;4316;53.840;10.762;2023-08-21T13:03:30;3.55;;;0.98;;
8556;SDS011;4316;53.840;10.762;2023-08-21T13:05:56;7.32;;;1.00;;
8556;SDS011;4316;53.840;10.762;2023-08-21T13:08:21;1.65;;;0.90;;
8556;SDS011;4316;53.840;10.762;2023-08-21T13:10:47;2.95;;;1.02;;
8556;SDS011;4316;53.840;10.762;2023-08-21T13:13:12;1.83;;;0.93;;
8556;SDS011;4316;53.840;10.762;2023-08-21T13:15:38;1.02;;;0.80;;
8556;SDS011;4316;53.840;10.762;2023-08-21T13:18:04;3.65;;;1.33;;
8556;SDS011;4316;53.840;10.762;2023-08-21T13:20:30;2.63;;;0.93;;
8556;SDS011;4316;53.840;10.762;2023-08-21T13:22:55;2.25;;;0.90;;
8556;SDS011;4316;53.840;10.762;2023-08-21T13:25:24;1.90;;;1.10;;
8556;SDS011;4316;53.840;10.762;2023-08-21T13:27:50;3.90;;;0.77;;
8556;SDS011;4316;53.840;10.762;2023-08-21T13:30:17;3.17;;;1.42;;
8556;SDS011;4316;53.840;10.762;2023-08-21T13:32:42;2.42;;;1.00;;
8556;SDS011;4316;53.840;10.762;2023-08-21T13:35:08;3.30;;;1.65;;
8556;SDS011;4316;53.840;10.762;2023-08-21T13:37:35;2.88;;;1.15;;
8556;SDS011;4316;53.840;10.762;2023-08-21T13:40:01;2.47;;;1.00;;
8556;SDS011;4316;53.840;10.762;2023-08-21T13:42:38;0.57;;;0.52;;
8556;SDS011;4316;53.840;10.762;2023-08-21T13:45:08;2.13;;;0.80;;
8556;SDS011;4316;53.840;10.762;2023-08-21T13:47:36;0.85;;;0.70;;
8556;SDS011;4316;53.840;10.762;2023-08-21T13:50:02;2.08;;;0.82;;
8556;SDS011;4316;53.840;10.762;2023-08-21T13:52:30;1.23;;;0.80;;
8556;SDS011;4316;53.840;10.762;2023-08-21T13:54:55;2.28;;;0.73;;
8556;SDS011;4316;53.840;10.762;2023-08-21T13:57:21;2.33;;;0.80;;
8556;SDS011;4316;53.840;10.762;2023-08-21T13:59:46;1.50;;;0.80;;
8556;SDS011;4316;53.840;10.762;2023-08-21T14:02:12;5.70;;;1.02;;
8556;SDS011;4316;53.840;10.762;2023-08-21T14:04:38;3.00;;;1.00;;
8556;SDS011;4316;53.840;10.762;2023-08-21T14:07:04;4.88;;;0.88;;
8556;SDS011;4316;53.840;10.762;2023-08-21T14:09:29;7.25;;;1.30;;
8556;SDS011;4316;53.840;10.762;2023-08-21T14:11:55;5.82;;;0.82;;
8556;SDS011;4316;53.840;10.762;2023-08-21T14:14:20;0.85;;;0.68;;
8556;SDS011;4316;53.840;10.762;2023-08-21T14:16:46;2.47;;;0.90;;
8556;SDS011;4316;53.840;10.762;2023-08-21T14:19:11;0.65;;;0.60;;
8556;SDS011;4316;53.840;10.762;2023-08-21T14:21:37;1.50;;;1.00;;
8556;SDS011;4316;53.840;10.762;2023-08-21T14:24:02;5.47;;;0.95;;
8556;SDS011;4316;53.840;10.762;2023-08-21T14:26:28;1.65;;;0.70;;
8556;SDS011;4316;53.840;10.762;2023-08-21T14:28:54;5.10;;;0.90;;
8556;SDS011;4316;53.840;10.762;2023-08-21T14:31:19;1.95;;;0.93;;
8556;SDS011;4316;53.840;10.762;2023-08-21T14:33:45;1.08;;;0.70;;
8556;SDS011;4316;53.840;10.762;2023-08-21T14:36:10;3.83;;;0.60;;
8556;SDS011;4316;53.840;10.762;2023-08-21T14:38:36;1.17;;;0.60;;
8556;SDS011;4316;53.840;10.762;2023-08-21T14:41:02;0.88;;;0.60;;
8556;SDS011;4316;53.840;10.762;2023-08-21T14:43:28;0.90;;;0.88;;
8556;SDS011;4316;53.840;10.762;2023-08-21T14:45:57;7.07;;;0.80;;
8556;SDS011;4316;53.840;10.762;2023-08-21T14:48:22;1.38;;;0.45;;
8556;SDS011;4316;53.840;10.762;2023-08-21T14:50:48;5.13;;;0.80;;
8556;SDS011;4316;53.840;10.762;2023-08-21T14:53:14;1.08;;;0.60;;
8556;SDS011;4316;53.840;10.762;2023-08-21T14:55:39;0.82;;;0.65;;
8556;SDS011;4316;53.840;10.762;2023-08-21T14:58:05;2.40;;;0.80;;
8556;SDS011;4316;53.840;10.762;2023-08-21T15:00:32;0.85;;;0.60;;
8556;SDS011;4316;53.840;10.762;2023-08-21T15:02:58;3.45;;;1.10;;
8556;SDS011;4316;53.840;10.762;2023-08-21T15:05:24;4.82;;;1.15;;
8556;SDS011;4316;53.840;10.762;2023-08-21T15:07:50;8.18;;;0.80;;
8556;SDS011;4316;53.840;10.762;2023-08-21T15:10:16;2.42;;;0.52;;